Wayana — PE5639 — position and weather

sailwx.info

Track history (hours):
 
Tides and Currents Weather Stations Pressure Air Temp Water Temp Dewpoint Dewpoint Depression Visibility Wind Speed Wind Dir Waves Ship Positions

Wayana

Last reported at 2015-May-21 13:09 UTC. Time now 2015-May-22 08:29 UTC.
Position N 59°29' E 005°13'.

Length 14 m.

Type: Sailing vessel. MMSI: 244020670.

Date/timePositionNaut miles runAvg speedWind from/ knotsBaromVisibWave heightAir tempDewpointWater temp
2015-May-21 13:09N 59°29' E 005°13'19 3.8
2015-May-21 08:09N 59°12' E 005°29'4 6.0
2015-May-21 07:32N 59°09' E 005°30'6 5.9
2015-May-21 06:32N 59°03' E 005°32'6 6.1
2015-May-21 05:30N 58°57' E 005°34'1 1.1
2015-May-21 04:32N 58°56' E 005°35'0 0.0
2015-May-21 03:26N 58°56' E 005°35'0 0.0
2015-May-21 02:23N 58°56' E 005°35'0 0.0
2015-May-21 01:29N 58°56' E 005°35'0 0.0
2015-May-21 00:26N 58°56' E 005°35'0 0.0
2015-May-20 23:29N 58°56' E 005°35'0 0.0
2015-May-20 22:32N 58°56' E 005°35'0 0.0
2015-May-20 21:33N 58°56' E 005°35'0 0.0
2015-May-20 20:32N 58°56' E 005°35'3 0.4
2015-May-20 13:21N 58°53' E 005°32'23 5.8
2015-May-20 09:24N 58°31' E 005°41'7 7.8
2015-May-20 08:31N 58°28' E 005°52'4 4.1
2015-May-20 07:32N 58°27' E 006°00'0 0.0
2015-May-20 06:29N 58°27' E 006°00'0 0.0
2015-May-20 05:32N 58°27' E 006°00'0 0.0
2015-May-20 04:32N 58°27' E 006°00'0 0.0
2015-May-20 03:29N 58°27' E 006°00'0 0.0
2015-May-20 02:32N 58°27' E 006°00'0 0.0
2015-May-20 01:32N 58°27' E 006°00'0 0.0
2015-May-20 00:32N 58°27' E 006°00'0 0.0
2015-May-19 23:32N 58°27' E 006°00'0 0.0
2015-May-19 22:32N 58°27' E 006°00'0 0.0
2015-May-19 21:26N 58°27' E 006°00'0 0.0
2015-May-19 20:32N 58°27' E 006°00'0 0.0
2015-May-19 19:29N 58°27' E 006°00'0 0.0
2015-May-19 18:32N 58°27' E 006°00'0 0.0
2015-May-19 17:32N 58°27' E 006°00'0 0.0
2015-May-19 16:29N 58°27' E 006°00'0 0.0
2015-May-19 15:29N 58°27' E 006°00'0 0.0
2015-May-19 14:32N 58°27' E 006°00'0 0.0
2015-May-19 13:32N 58°27' E 006°00'0 0.0
2015-May-19 12:32N 58°27' E 006°00'3 3.3
2015-May-19 11:33N 58°24' E 006°00'253 6.2
2015-May-17 18:33N 54°11' E 005°22'8 7.1
2015-May-17 17:29N 54°04' E 005°20'7 7.2
2015-May-17 16:32N 53°57' E 005°15'7 7.2
2015-May-17 15:32N 53°51' E 005°11'8 7.4
2015-May-17 14:29N 53°43' E 005°07'10 7.4
2015-May-17 13:07N 53°34' E 005°02'4 7.0
2015-May-17 12:33N 53°30' E 005°00'7 7.0
2015-May-17 11:33N 53°23' E 004°58'5 5.2
2015-May-17 10:33N 53°19' E 005°03'5 5.1
2015-May-17 09:33N 53°16' E 005°10'7 6.7
2015-May-17 08:33N 53°09' E 005°10'5 5.3
2015-May-17 07:31N 53°04' E 005°06'7 6.7
2015-May-17 06:33N 52°58' E 005°05'2 2.4
2015-May-17 05:31N 52°55' E 005°03'0 0.0
2015-May-17 04:31N 52°55' E 005°03'0 0.0
2015-May-17 03:31N 52°55' E 005°03'0 0.0
2015-May-17 02:28N 52°55' E 005°03'0 0.0
2015-May-17 01:31N 52°55' E 005°03'0 0.0
2015-May-17 00:28N 52°55' E 005°03'0 0.0
2015-May-16 23:31N 52°55' E 005°03'0 0.0
2015-May-16 22:31N 52°55' E 005°03'0 0.0
2015-May-16 21:31N 52°55' E 005°03'0 0.0
2015-May-16 20:28N 52°55' E 005°03'0 0.0
2015-May-16 19:31N 52°55' E 005°03'0 0.0
2015-May-16 18:25N 52°55' E 005°03'0 0.0
2015-May-16 17:28N 52°55' E 005°03'0 0.0
2015-May-16 16:31N 52°55' E 005°03'0 0.0
2015-May-16 15:33N 52°55' E 005°03'0 0.0
2015-May-16 14:28N 52°55' E 005°03'0 0.0
2015-May-16 13:33N 52°55' E 005°03'0 0.0
2015-May-16 12:33N 52°55' E 005°03'0 0.0
2015-May-16 11:33N 52°55' E 005°03'0 0.0
2015-May-16 10:33N 52°55' E 005°03'0 0.0
2015-May-16 09:33N 52°55' E 005°03'0 0.0
2015-May-16 08:33N 52°55' E 005°03'0 0.0
2015-May-16 07:33N 52°55' E 005°03'0 0.0
2015-May-16 06:30N 52°55' E 005°03'0 0.0
2015-May-16 05:33N 52°55' E 005°03'0 0.0
2015-May-16 04:33N 52°55' E 005°03'0 0.0
2015-May-16 03:33N 52°55' E 005°03'0 0.0
2015-May-16 02:33N 52°55' E 005°03'0 0.0
2015-May-16 01:33N 52°55' E 005°03'0 0.0
2015-May-16 00:33N 52°55' E 005°03'0 0.0
2015-May-15 23:33N 52°55' E 005°03'0 0.0
2015-May-15 22:33N 52°55' E 005°03'0 0.0
2015-May-15 21:33N 52°55' E 005°03'0 0.0
2015-May-15 20:33N 52°55' E 005°03'0 0.0
2015-May-15 19:33N 52°55' E 005°03'0 0.0
2015-May-15 18:33N 52°55' E 005°03'0 0.0
2015-May-15 17:33N 52°55' E 005°03'0 0.0
2015-May-15 16:33N 52°55' E 005°03'0 0.0
2015-May-15 15:33N 52°55' E 005°03'0 0.0
2015-May-15 14:33N 52°55' E 005°03'0 0.0
2015-May-15 13:33N 52°55' E 005°03'0 0.0
2015-May-14 19:12N 52°55' E 005°03'0 0.0
2015-May-14 18:33N 52°55' E 005°03'0 0.0
2015-May-14 17:24N 52°55' E 005°03'0 0.0
2015-May-14 16:29N 52°55' E 005°03'0 0.0
2015-May-14 15:29N 52°55' E 005°03'0 0.0
2015-May-14 14:29N 52°55' E 005°03'  
Track history (hours):
 
Tides and Currents Weather Stations Pressure Air Temp Water Temp Dewpoint Dewpoint Depression Visibility Wind Speed Wind Dir Waves Ship Positions

Wayana

Last reported at 2015-May-21 13:09 UTC. Time now 2015-May-22 08:29 UTC.
Position N 59°29' E 005°13'.

Length 14 m.

Type: Sailing vessel. MMSI: 244020670.

Date/timePositionNaut miles runAvg speedWind from/ knotsBaromVisibWave heightAir tempDewpointWater temp
2015-May-21 13:09N 59°29' E 005°13'19 3.8
2015-May-21 08:09N 59°12' E 005°29'4 6.0
2015-May-21 07:32N 59°09' E 005°30'6 5.9
2015-May-21 06:32N 59°03' E 005°32'6 6.1
2015-May-21 05:30N 58°57' E 005°34'1 1.1
2015-May-21 04:32N 58°56' E 005°35'0 0.0
2015-May-21 03:26N 58°56' E 005°35'0 0.0
2015-May-21 02:23N 58°56' E 005°35'0 0.0
2015-May-21 01:29N 58°56' E 005°35'0 0.0
2015-May-21 00:26N 58°56' E 005°35'0 0.0
2015-May-20 23:29N 58°56' E 005°35'0 0.0
2015-May-20 22:32N 58°56' E 005°35'0 0.0
2015-May-20 21:33N 58°56' E 005°35'0 0.0
2015-May-20 20:32N 58°56' E 005°35'3 0.4
2015-May-20 13:21N 58°53' E 005°32'23 5.8
2015-May-20 09:24N 58°31' E 005°41'7 7.8
2015-May-20 08:31N 58°28' E 005°52'4 4.1
2015-May-20 07:32N 58°27' E 006°00'0 0.0
2015-May-20 06:29N 58°27' E 006°00'0 0.0
2015-May-20 05:32N 58°27' E 006°00'0 0.0
2015-May-20 04:32N 58°27' E 006°00'0 0.0
2015-May-20 03:29N 58°27' E 006°00'0 0.0
2015-May-20 02:32N 58°27' E 006°00'0 0.0
2015-May-20 01:32N 58°27' E 006°00'0 0.0
2015-May-20 00:32N 58°27' E 006°00'0 0.0
2015-May-19 23:32N 58°27' E 006°00'0 0.0
2015-May-19 22:32N 58°27' E 006°00'0 0.0
2015-May-19 21:26N 58°27' E 006°00'0 0.0
2015-May-19 20:32N 58°27' E 006°00'0 0.0
2015-May-19 19:29N 58°27' E 006°00'0 0.0
2015-May-19 18:32N 58°27' E 006°00'0 0.0
2015-May-19 17:32N 58°27' E 006°00'0 0.0
2015-May-19 16:29N 58°27' E 006°00'0 0.0
2015-May-19 15:29N 58°27' E 006°00'0 0.0
2015-May-19 14:32N 58°27' E 006°00'0 0.0
2015-May-19 13:32N 58°27' E 006°00'0 0.0
2015-May-19 12:32N 58°27' E 006°00'3 3.3
2015-May-19 11:33N 58°24' E 006°00'253 6.2
2015-May-17 18:33N 54°11' E 005°22'8 7.1
2015-May-17 17:29N 54°04' E 005°20'7 7.2
2015-May-17 16:32N 53°57' E 005°15'7 7.2
2015-May-17 15:32N 53°51' E 005°11'8 7.4
2015-May-17 14:29N 53°43' E 005°07'10 7.4
2015-May-17 13:07N 53°34' E 005°02'4 7.0
2015-May-17 12:33N 53°30' E 005°00'7 7.0
2015-May-17 11:33N 53°23' E 004°58'5 5.2
2015-May-17 10:33N 53°19' E 005°03'5 5.1
2015-May-17 09:33N 53°16' E 005°10'7 6.7
2015-May-17 08:33N 53°09' E 005°10'5 5.3
2015-May-17 07:31N 53°04' E 005°06'7 6.7
2015-May-17 06:33N 52°58' E 005°05'2 2.4
2015-May-17 05:31N 52°55' E 005°03'0 0.0
2015-May-17 04:31N 52°55' E 005°03'0 0.0
2015-May-17 03:31N 52°55' E 005°03'0 0.0
2015-May-17 02:28N 52°55' E 005°03'0 0.0
2015-May-17 01:31N 52°55' E 005°03'0 0.0
2015-May-17 00:28N 52°55' E 005°03'0 0.0
2015-May-16 23:31N 52°55' E 005°03'0 0.0
2015-May-16 22:31N 52°55' E 005°03'0 0.0
2015-May-16 21:31N 52°55' E 005°03'0 0.0
2015-May-16 20:28N 52°55' E 005°03'0 0.0
2015-May-16 19:31N 52°55' E 005°03'0 0.0
2015-May-16 18:25N 52°55' E 005°03'0 0.0
2015-May-16 17:28N 52°55' E 005°03'0 0.0
2015-May-16 16:31N 52°55' E 005°03'0 0.0
2015-May-16 15:33N 52°55' E 005°03'0 0.0
2015-May-16 14:28N 52°55' E 005°03'0 0.0
2015-May-16 13:33N 52°55' E 005°03'0 0.0
2015-May-16 12:33N 52°55' E 005°03'0 0.0
2015-May-16 11:33N 52°55' E 005°03'0 0.0
2015-May-16 10:33N 52°55' E 005°03'0 0.0
2015-May-16 09:33N 52°55' E 005°03'0 0.0
2015-May-16 08:33N 52°55' E 005°03'0 0.0
2015-May-16 07:33N 52°55' E 005°03'0 0.0
2015-May-16 06:30N 52°55' E 005°03'0 0.0
2015-May-16 05:33N 52°55' E 005°03'0 0.0
2015-May-16 04:33N 52°55' E 005°03'0 0.0
2015-May-16 03:33N 52°55' E 005°03'0 0.0
2015-May-16 02:33N 52°55' E 005°03'0 0.0
2015-May-16 01:33N 52°55' E 005°03'0 0.0
2015-May-16 00:33N 52°55' E 005°03'0 0.0
2015-May-15 23:33N 52°55' E 005°03'0 0.0
2015-May-15 22:33N 52°55' E 005°03'0 0.0
2015-May-15 21:33N 52°55' E 005°03'0 0.0
2015-May-15 20:33N 52°55' E 005°03'0 0.0
2015-May-15 19:33N 52°55' E 005°03'0 0.0
2015-May-15 18:33N 52°55' E 005°03'0 0.0
2015-May-15 17:33N 52°55' E 005°03'0 0.0
2015-May-15 16:33N 52°55' E 005°03'0 0.0
2015-May-15 15:33N 52°55' E 005°03'0 0.0
2015-May-15 14:33N 52°55' E 005°03'0 0.0
2015-May-15 13:33N 52°55' E 005°03'0 0.0
2015-May-14 19:12N 52°55' E 005°03'0 0.0
2015-May-14 18:33N 52°55' E 005°03'0 0.0
2015-May-14 17:24N 52°55' E 005°03'0 0.0
2015-May-14 16:29N 52°55' E 005°03'0 0.0
2015-May-14 15:29N 52°55' E 005°03'0 0.0
2015-May-14 14:29N 52°55' E 005°03'  

Dump ship's entire track history